sensor_id;sensor_type;location;lat;lon;timestamp;temperature;humidity
54124;DHT22;55741;53.252;5.788;2023-04-25T00:01:33;7.00;99.90
54124;DHT22;55741;53.252;5.788;2023-04-25T00:04:01;7.00;99.90
54124;DHT22;55741;53.252;5.788;2023-04-25T00:06:26;7.00;99.90
54124;DHT22;55741;53.252;5.788;2023-04-25T00:08:52;7.00;99.90
54124;DHT22;55741;53.252;5.788;2023-04-25T00:11:19;7.00;99.90
54124;DHT22;55741;53.252;5.788;2023-04-25T00:13:44;7.00;99.90
54124;DHT22;55741;53.252;5.788;2023-04-25T00:16:12;7.00;99.90
54124;DHT22;55741;53.252;5.788;2023-04-25T00:18:42;7.00;99.90
54124;DHT22;55741;53.252;5.788;2023-04-25T00:21:08;7.00;99.90
54124;DHT22;55741;53.252;5.788;2023-04-25T00:23:34;7.00;99.90
54124;DHT22;55741;53.252;5.788;2023-04-25T00:26:02;7.00;99.90
54124;DHT22;55741;53.252;5.788;2023-04-25T00:28:28;7.00;99.90
54124;DHT22;55741;53.252;5.788;2023-04-25T00:30:53;7.00;99.90
54124;DHT22;55741;53.252;5.788;2023-04-25T00:33:19;7.00;99.90
54124;DHT22;55741;53.252;5.788;2023-04-25T00:35:45;7.00;99.90
54124;DHT22;55741;53.252;5.788;2023-04-25T00:38:11;7.00;99.90
54124;DHT22;55741;53.252;5.788;2023-04-25T00:40:37;7.00;99.90
54124;DHT22;55741;53.252;5.788;2023-04-25T00:43:03;7.00;99.90
54124;DHT22;55741;53.252;5.788;2023-04-25T00:45:29;7.00;99.90
54124;DHT22;55741;53.252;5.788;2023-04-25T00:47:56;7.00;99.90
54124;DHT22;55741;53.252;5.788;2023-04-25T00:50:22;7.00;99.90
54124;DHT22;55741;53.252;5.788;2023-04-25T00:52:48;7.00;99.90
54124;DHT22;55741;53.252;5.788;2023-04-25T00:55:14;7.00;99.90
54124;DHT22;55741;53.252;5.788;2023-04-25T00:57:43;7.00;99.90
54124;DHT22;55741;53.252;5.788;2023-04-25T01:00:09;7.00;99.90
54124;DHT22;55741;53.252;5.788;2023-04-25T01:02:36;7.00;99.90
54124;DHT22;55741;53.252;5.788;2023-04-25T01:05:03;7.00;99.90
54124;DHT22;55741;53.252;5.788;2023-04-25T01:07:29;7.00;99.90
54124;DHT22;55741;53.252;5.788;2023-04-25T01:09:56;7.00;99.90
54124;DHT22;55741;53.252;5.788;2023-04-25T01:12:23;7.00;99.90
54124;DHT22;55741;53.252;5.788;2023-04-25T01:14:49;7.00;99.90
54124;DHT22;55741;53.252;5.788;2023-04-25T01:17:15;6.90;99.90
54124;DHT22;55741;53.252;5.788;2023-04-25T01:19:41;6.70;99.90
54124;DHT22;55741;53.252;5.788;2023-04-25T01:22:07;6.60;99.90
54124;DHT22;55741;53.252;5.788;2023-04-25T01:24:36;6.60;99.90
54124;DHT22;55741;53.252;5.788;2023-04-25T01:27:02;6.50;99.90
54124;DHT22;55741;53.252;5.788;2023-04-25T01:29:28;6.40;99.90
54124;DHT22;55741;53.252;5.788;2023-04-25T01:31:55;6.40;99.90
54124;DHT22;55741;53.252;5.788;2023-04-25T01:34:21;6.40;99.90
54124;DHT22;55741;53.252;5.788;2023-04-25T01:36:50;6.40;99.90
54124;DHT22;55741;53.252;5.788;2023-04-25T01:39:17;6.30;99.90
54124;DHT22;55741;53.252;5.788;2023-04-25T01:41:44;6.40;99.90
54124;DHT22;55741;53.252;5.788;2023-04-25T01:44:10;6.30;99.90
54124;DHT22;55741;53.252;5.788;2023-04-25T01:46:37;6.40;99.90
54124;DHT22;55741;53.252;5.788;2023-04-25T01:49:03;6.40;99.90
54124;DHT22;55741;53.252;5.788;2023-04-25T01:51:29;6.40;99.90
54124;DHT22;55741;53.252;5.788;2023-04-25T01:53:56;6.40;99.90
54124;DHT22;55741;53.252;5.788;2023-04-25T01:56:22;6.40;99.90
54124;DHT22;55741;53.252;5.788;2023-04-25T01:58:50;6.40;99.90
54124;DHT22;55741;53.252;5.788;2023-04-25T02:01:16;6.40;99.90
54124;DHT22;55741;53.252;5.788;2023-04-25T02:03:42;6.40;99.90
54124;DHT22;55741;53.252;5.788;2023-04-25T02:06:08;6.30;99.90
54124;DHT22;55741;53.252;5.788;2023-04-25T02:08:34;6.30;99.90
54124;DHT22;55741;53.252;5.788;2023-04-25T02:11:00;6.40;99.90
54124;DHT22;55741;53.252;5.788;2023-04-25T02:13:26;6.30;99.90
54124;DHT22;55741;53.252;5.788;2023-04-25T02:15:52;6.40;99.90
54124;DHT22;55741;53.252;5.788;2023-04-25T02:18:17;6.40;99.90
54124;DHT22;55741;53.252;5.788;2023-04-25T02:20:44;6.40;99.90
54124;DHT22;55741;53.252;5.788;2023-04-25T02:23:09;6.40;99.90
54124;DHT22;55741;53.252;5.788;2023-04-25T02:25:35;6.30;99.90
54124;DHT22;55741;53.252;5.788;2023-04-25T02:28:01;6.20;99.90
54124;DHT22;55741;53.252;5.788;2023-04-25T02:30:27;6.20;99.90
54124;DHT22;55741;53.252;5.788;2023-04-25T02:32:53;6.10;99.90
54124;DHT22;55741;53.252;5.788;2023-04-25T02:35:18;6.10;99.90
54124;DHT22;55741;53.252;5.788;2023-04-25T02:37:45;6.10;99.90
54124;DHT22;55741;53.252;5.788;2023-04-25T02:40:11;6.00;99.90
54124;DHT22;55741;53.252;5.788;2023-04-25T02:42:37;6.00;99.90
54124;DHT22;55741;53.252;5.788;2023-04-25T02:45:03;6.10;99.90
54124;DHT22;55741;53.252;5.788;2023-04-25T02:47:29;6.10;99.90
54124;DHT22;55741;53.252;5.788;2023-04-25T02:49:55;6.10;99.90
54124;DHT22;55741;53.252;5.788;2023-04-25T02:52:20;6.10;99.90
54124;DHT22;55741;53.252;5.788;2023-04-25T02:54:46;6.10;99.90
54124;DHT22;55741;53.252;5.788;2023-04-25T02:57:12;6.20;99.90
54124;DHT22;55741;53.252;5.788;2023-04-25T02:59:40;6.20;99.90
54124;DHT22;55741;53.252;5.788;2023-04-25T03:02:06;6.20;99.90
54124;DHT22;55741;53.252;5.788;2023-04-25T03:04:31;6.20;99.90
54124;DHT22;55741;53.252;5.788;2023-04-25T03:06:58;6.20;99.90
54124;DHT22;55741;53.252;5.788;2023-04-25T03:09:24;6.30;99.90
54124;DHT22;55741;53.252;5.788;2023-04-25T03:11:50;6.30;99.90
54124;DHT22;55741;53.252;5.788;2023-04-25T03:14:16;6.30;99.90
54124;DHT22;55741;53.252;5.788;2023-04-25T03:16:42;6.30;99.90
54124;DHT22;55741;53.252;5.788;2023-04-25T03:19:07;6.30;99.90
54124;DHT22;55741;53.252;5.788;2023-04-25T03:21:34;6.30;99.90
54124;DHT22;55741;53.252;5.788;2023-04-25T03:24:02;6.30;99.90
54124;DHT22;55741;53.252;5.788;2023-04-25T03:26:29;6.30;99.90
54124;DHT22;55741;53.252;5.788;2023-04-25T03:28:54;6.20;99.90
54124;DHT22;55741;53.252;5.788;2023-04-25T03:31:20;6.20;99.90
54124;DHT22;55741;53.252;5.788;2023-04-25T03:33:47;6.20;99.90
54124;DHT22;55741;53.252;5.788;2023-04-25T03:36:13;6.20;99.90
54124;DHT22;55741;53.252;5.788;2023-04-25T03:38:39;6.20;99.90
54124;DHT22;55741;53.252;5.788;2023-04-25T03:41:06;6.20;99.90
54124;DHT22;55741;53.252;5.788;2023-04-25T03:43:32;6.20;99.90
54124;DHT22;55741;53.252;5.788;2023-04-25T03:45:58;6.20;99.90
54124;DHT22;55741;53.252;5.788;2023-04-25T03:48:25;6.20;99.90
54124;DHT22;55741;53.252;5.788;2023-04-25T03:50:52;6.20;99.90
54124;DHT22;55741;53.252;5.788;2023-04-25T03:53:18;6.20;99.90
54124;DHT22;55741;53.252;5.788;2023-04-25T03:55:43;6.20;99.90
54124;DHT22;55741;53.252;5.788;2023-04-25T03:58:09;6.10;99.90
54124;DHT22;55741;53.252;5.788;2023-04-25T04:00:37;6.10;99.90
54124;DHT22;55741;53.252;5.788;2023-04-25T04:03:03;6.10;99.90
54124;DHT22;55741;53.252;5.788;2023-04-25T04:05:29;6.00;99.90
54124;DHT22;55741;53.252;5.788;2023-04-25T04:07:55;6.00;99.90
54124;DHT22;55741;53.252;5.788;2023-04-25T04:10:21;6.00;99.90
54124;DHT22;55741;53.252;5.788;2023-04-25T04:12:46;6.00;99.90
54124;DHT22;55741;53.252;5.788;2023-04-25T04:15:12;6.00;99.90
54124;DHT22;55741;53.252;5.788;2023-04-25T04:17:38;6.00;99.90
54124;DHT22;55741;53.252;5.788;2023-04-25T04:20:05;6.00;99.90
54124;DHT22;55741;53.252;5.788;2023-04-25T04:22:31;6.00;99.90
54124;DHT22;55741;53.252;5.788;2023-04-25T04:24:57;6.00;99.90
54124;DHT22;55741;53.252;5.788;2023-04-25T04:27:23;6.00;99.90
54124;DHT22;55741;53.252;5.788;2023-04-25T04:29:49;6.00;99.90
54124;DHT22;55741;53.252;5.788;2023-04-25T04:32:17;6.00;99.90
54124;DHT22;55741;53.252;5.788;2023-04-25T04:34:43;6.00;99.90
54124;DHT22;55741;53.252;5.788;2023-04-25T04:37:10;6.00;99.90
54124;DHT22;55741;53.252;5.788;2023-04-25T04:39:36;6.00;99.90
54124;DHT22;55741;53.252;5.788;2023-04-25T04:42:02;6.00;99.90
54124;DHT22;55741;53.252;5.788;2023-04-25T04:44:29;6.00;99.90
54124;DHT22;55741;53.252;5.788;2023-04-25T04:46:58;6.10;99.90
54124;DHT22;55741;53.252;5.788;2023-04-25T04:49:24;6.10;99.90
54124;DHT22;55741;53.252;5.788;2023-04-25T04:51:50;6.10;99.90
54124;DHT22;55741;53.252;5.788;2023-04-25T04:54:16;6.10;99.90
54124;DHT22;55741;53.252;5.788;2023-04-25T04:56:42;6.10;99.90
54124;DHT22;55741;53.252;5.788;2023-04-25T04:59:08;6.20;99.90
54124;DHT22;55741;53.252;5.788;2023-04-25T05:01:36;6.10;99.90
54124;DHT22;55741;53.252;5.788;2023-04-25T05:04:03;6.20;99.90
54124;DHT22;55741;53.252;5.788;2023-04-25T05:06:29;6.20;99.90
54124;DHT22;55741;53.252;5.788;2023-04-25T05:08:56;6.10;99.90
54124;DHT22;55741;53.252;5.788;2023-04-25T05:11:22;6.10;99.90
54124;DHT22;55741;53.252;5.788;2023-04-25T05:13:50;6.10;99.90
54124;DHT22;55741;53.252;5.788;2023-04-25T05:16:16;6.20;99.90
54124;DHT22;55741;53.252;5.788;2023-04-25T05:18:42;6.20;99.90
54124;DHT22;55741;53.252;5.788;2023-04-25T05:21:08;6.20;99.90
54124;DHT22;55741;53.252;5.788;2023-04-25T05:23:34;6.10;99.90
54124;DHT22;55741;53.252;5.788;2023-04-25T05:26:00;6.20;99.90
54124;DHT22;55741;53.252;5.788;2023-04-25T05:28:26;6.30;99.90
54124;DHT22;55741;53.252;5.788;2023-04-25T05:30:51;6.40;99.90
54124;DHT22;55741;53.252;5.788;2023-04-25T05:33:18;6.40;99.90
54124;DHT22;55741;53.252;5.788;2023-04-25T05:35:44;6.40;99.90
54124;DHT22;55741;53.252;5.788;2023-04-25T05:38:10;6.50;99.90
54124;DHT22;55741;53.252;5.788;2023-04-25T05:40:36;6.40;99.90
54124;DHT22;55741;53.252;5.788;2023-04-25T05:43:02;6.30;99.90
54124;DHT22;55741;53.252;5.788;2023-04-25T05:45:28;6.20;99.90
54124;DHT22;55741;53.252;5.788;2023-04-25T05:47:54;6.10;99.90
54124;DHT22;55741;53.252;5.788;2023-04-25T05:50:20;5.90;99.90
54124;DHT22;55741;53.252;5.788;2023-04-25T05:52:46;5.80;99.90
54124;DHT22;55741;53.252;5.788;2023-04-25T05:55:11;5.70;99.90
54124;DHT22;55741;53.252;5.788;2023-04-25T05:57:37;5.70;99.90
54124;DHT22;55741;53.252;5.788;2023-04-25T06:00:12;5.60;99.90
54124;DHT22;55741;53.252;5.788;2023-04-25T06:02:39;5.60;99.90
54124;DHT22;55741;53.252;5.788;2023-04-25T06:05:05;5.60;99.90
54124;DHT22;55741;53.252;5.788;2023-04-25T06:07:31;5.60;99.90
54124;DHT22;55741;53.252;5.788;2023-04-25T06:09:57;5.60;99.90
54124;DHT22;55741;53.252;5.788;2023-04-25T06:12:23;5.60;99.90
54124;DHT22;55741;53.252;5.788;2023-04-25T06:14:49;5.70;99.90
54124;DHT22;55741;53.252;5.788;2023-04-25T06:17:15;5.70;99.90
54124;DHT22;55741;53.252;5.788;2023-04-25T06:19:41;5.70;99.90
54124;DHT22;55741;53.252;5.788;2023-04-25T06:22:07;5.80;99.90
54124;DHT22;55741;53.252;5.788;2023-04-25T06:24:33;5.80;99.90
54124;DHT22;55741;53.252;5.788;2023-04-25T06:27:00;5.80;99.90
54124;DHT22;55741;53.252;5.788;2023-04-25T06:29:26;5.90;99.90
54124;DHT22;55741;53.252;5.788;2023-04-25T06:31:52;6.00;99.90
54124;DHT22;55741;53.252;5.788;2023-04-25T06:34:18;6.10;99.90
54124;DHT22;55741;53.252;5.788;2023-04-25T06:36:44;6.20;99.90
54124;DHT22;55741;53.252;5.788;2023-04-25T06:39:10;6.20;99.90
54124;DHT22;55741;53.252;5.788;2023-04-25T06:41:36;6.30;99.90
54124;DHT22;55741;53.252;5.788;2023-04-25T06:44:02;6.30;99.90
54124;DHT22;55741;53.252;5.788;2023-04-25T06:46:28;6.30;99.90
54124;DHT22;55741;53.252;5.788;2023-04-25T06:48:54;6.30;99.90
54124;DHT22;55741;53.252;5.788;2023-04-25T06:51:20;6.30;99.90
54124;DHT22;55741;53.252;5.788;2023-04-25T06:53:46;6.40;99.90
54124;DHT22;55741;53.252;5.788;2023-04-25T06:56:12;6.50;99.90
54124;DHT22;55741;53.252;5.788;2023-04-25T06:58:38;6.60;99.90
54124;DHT22;55741;53.252;5.788;2023-04-25T07:01:04;6.80;99.90
54124;DHT22;55741;53.252;5.788;2023-04-25T07:03:31;6.90;99.90
54124;DHT22;55741;53.252;5.788;2023-04-25T07:05:57;7.00;99.90
54124;DHT22;55741;53.252;5.788;2023-04-25T07:08:23;7.10;99.90
54124;DHT22;55741;53.252;5.788;2023-04-25T07:10:48;7.20;99.90
54124;DHT22;55741;53.252;5.788;2023-04-25T07:13:14;7.20;99.90
54124;DHT22;55741;53.252;5.788;2023-04-25T07:15:40;7.30;99.90
54124;DHT22;55741;53.252;5.788;2023-04-25T07:18:07;7.40;99.90
54124;DHT22;55741;53.252;5.788;2023-04-25T07:20:33;7.40;99.90
54124;DHT22;55741;53.252;5.788;2023-04-25T07:22:59;7.40;99.90
54124;DHT22;55741;53.252;5.788;2023-04-25T07:25:24;7.40;99.90
54124;DHT22;55741;53.252;5.788;2023-04-25T07:27:50;7.40;99.90
54124;DHT22;55741;53.252;5.788;2023-04-25T07:30:16;7.60;99.90
54124;DHT22;55741;53.252;5.788;2023-04-25T07:32:42;7.90;99.90
54124;DHT22;55741;53.252;5.788;2023-04-25T07:35:08;8.10;99.90
54124;DHT22;55741;53.252;5.788;2023-04-25T07:37:35;8.20;99.90
54124;DHT22;55741;53.252;5.788;2023-04-25T07:40:05;8.10;99.90
54124;DHT22;55741;53.252;5.788;2023-04-25T07:42:31;8.10;99.90
54124;DHT22;55741;53.252;5.788;2023-04-25T07:44:57;8.20;99.90
54124;DHT22;55741;53.252;5.788;2023-04-25T07:47:23;8.40;99.90
54124;DHT22;55741;53.252;5.788;2023-04-25T07:49:49;8.50;99.90
54124;DHT22;55741;53.252;5.788;2023-04-25T07:52:15;8.70;99.90
54124;DHT22;55741;53.252;5.788;2023-04-25T07:54:41;8.90;99.90
54124;DHT22;55741;53.252;5.788;2023-04-25T07:57:07;9.10;99.90
54124;DHT22;55741;53.252;5.788;2023-04-25T07:59:33;9.20;99.90
54124;DHT22;55741;53.252;5.788;2023-04-25T08:01:58;9.10;99.90
54124;DHT22;55741;53.252;5.788;2023-04-25T08:04:26;9.10;99.90
54124;DHT22;55741;53.252;5.788;2023-04-25T08:06:52;9.00;99.90
54124;DHT22;55741;53.252;5.788;2023-04-25T08:09:19;8.90;99.90
54124;DHT22;55741;53.252;5.788;2023-04-25T08:11:45;8.80;99.90
54124;DHT22;55741;53.252;5.788;2023-04-25T08:14:12;8.80;99.90
54124;DHT22;55741;53.252;5.788;2023-04-25T08:16:39;8.80;99.90
54124;DHT22;55741;53.252;5.788;2023-04-25T08:19:05;8.80;99.90
54124;DHT22;55741;53.252;5.788;2023-04-25T08:21:31;8.80;99.90
54124;DHT22;55741;53.252;5.788;2023-04-25T08:23:57;8.80;99.90
54124;DHT22;55741;53.252;5.788;2023-04-25T08:26:24;8.80;99.90
54124;DHT22;55741;53.252;5.788;2023-04-25T08:28:50;8.80;99.90
54124;DHT22;55741;53.252;5.788;2023-04-25T08:31:17;8.80;99.90
54124;DHT22;55741;53.252;5.788;2023-04-25T08:33:43;8.70;99.90
54124;DHT22;55741;53.252;5.788;2023-04-25T08:36:10;8.60;99.90
54124;DHT22;55741;53.252;5.788;2023-04-25T08:38:37;8.60;99.90
54124;DHT22;55741;53.252;5.788;2023-04-25T08:41:03;8.60;99.90
54124;DHT22;55741;53.252;5.788;2023-04-25T08:43:29;8.60;99.90
54124;DHT22;55741;53.252;5.788;2023-04-25T08:45:59;8.70;99.90
54124;DHT22;55741;53.252;5.788;2023-04-25T08:48:27;8.80;99.90
54124;DHT22;55741;53.252;5.788;2023-04-25T08:50:55;9.00;99.90
54124;DHT22;55741;53.252;5.788;2023-04-25T08:53:26;9.30;99.90
54124;DHT22;55741;53.252;5.788;2023-04-25T08:55:54;9.60;99.90
54124;DHT22;55741;53.252;5.788;2023-04-25T08:58:20;9.90;99.90
54124;DHT22;55741;53.252;5.788;2023-04-25T09:00:47;10.10;99.90
54124;DHT22;55741;53.252;5.788;2023-04-25T09:03:13;10.20;99.90
54124;DHT22;55741;53.252;5.788;2023-04-25T09:05:41;10.40;99.90
54124;DHT22;55741;53.252;5.788;2023-04-25T09:08:08;10.50;99.90
54124;DHT22;55741;53.252;5.788;2023-04-25T09:10:34;10.50;99.90
54124;DHT22;55741;53.252;5.788;2023-04-25T09:15:31;10.50;99.90
54124;DHT22;55741;53.252;5.788;2023-04-25T09:17:58;10.60;99.90
54124;DHT22;55741;53.252;5.788;2023-04-25T09:20:24;10.80;99.90
54124;DHT22;55741;53.252;5.788;2023-04-25T09:23:04;10.80;99.90
54124;DHT22;55741;53.252;5.788;2023-04-25T09:25:34;10.80;99.90
54124;DHT22;55741;53.252;5.788;2023-04-25T09:28:04;10.80;99.90
54124;DHT22;55741;53.252;5.788;2023-04-25T09:30:33;10.70;99.90
54124;DHT22;55741;53.252;5.788;2023-04-25T09:33:09;10.60;99.90
54124;DHT22;55741;53.252;5.788;2023-04-25T09:35:41;10.40;99.90
54124;DHT22;55741;53.252;5.788;2023-04-25T09:38:14;10.20;99.90
54124;DHT22;55741;53.252;5.788;2023-04-25T09:40:43;9.90;99.90
54124;DHT22;55741;53.252;5.788;2023-04-25T09:43:10;9.70;99.90
54124;DHT22;55741;53.252;5.788;2023-04-25T09:45:45;9.50;99.90
54124;DHT22;55741;53.252;5.788;2023-04-25T09:48:21;9.40;99.90
54124;DHT22;55741;53.252;5.788;2023-04-25T09:51:06;9.30;99.90
54124;DHT22;55741;53.252;5.788;2023-04-25T09:53:40;9.20;99.90
54124;DHT22;55741;53.252;5.788;2023-04-25T09:56:08;9.40;99.90
54124;DHT22;55741;53.252;5.788;2023-04-25T09:58:35;9.50;99.90
54124;DHT22;55741;53.252;5.788;2023-04-25T10:01:04;9.60;99.90
54124;DHT22;55741;53.252;5.788;2023-04-25T10:03:31;9.70;99.90
54124;DHT22;55741;53.252;5.788;2023-04-25T10:06:01;10.00;99.90
54124;DHT22;55741;53.252;5.788;2023-04-25T10:08:32;10.40;99.90
54124;DHT22;55741;53.252;5.788;2023-04-25T10:11:02;10.70;99.90
54124;DHT22;55741;53.252;5.788;2023-04-25T10:13:33;10.80;99.90
54124;DHT22;55741;53.252;5.788;2023-04-25T10:16:00;10.90;99.90
54124;DHT22;55741;53.252;5.788;2023-04-25T10:18:27;10.90;99.90
54124;DHT22;55741;53.252;5.788;2023-04-25T10:20:59;10.70;99.90
54124;DHT22;55741;53.252;5.788;2023-04-25T10:23:25;10.50;99.90
54124;DHT22;55741;53.252;5.788;2023-04-25T10:25:52;10.30;99.90
54124;DHT22;55741;53.252;5.788;2023-04-25T10:28:21;10.10;99.90
54124;DHT22;55741;53.252;5.788;2023-04-25T10:31:03;10.00;99.90
54124;DHT22;55741;53.252;5.788;2023-04-25T10:33:37;10.10;99.90
54124;DHT22;55741;53.252;5.788;2023-04-25T10:36:14;10.40;99.90
54124;DHT22;55741;53.252;5.788;2023-04-25T10:38:43;10.50;99.90
54124;DHT22;55741;53.252;5.788;2023-04-25T10:41:10;10.50;99.90
54124;DHT22;55741;53.252;5.788;2023-04-25T10:43:46;10.50;99.90
54124;DHT22;55741;53.252;5.788;2023-04-25T10:46:38;10.60;99.90
54124;DHT22;55741;53.252;5.788;2023-04-25T10:49:04;10.80;99.90
54124;DHT22;55741;53.252;5.788;2023-04-25T10:51:34;11.00;99.90
54124;DHT22;55741;53.252;5.788;2023-04-25T10:54:04;11.10;99.90
54124;DHT22;55741;53.252;5.788;2023-04-25T10:56:37;11.30;99.90
54124;DHT22;55741;53.252;5.788;2023-04-25T10:59:13;11.40;99.90
54124;DHT22;55741;53.252;5.788;2023-04-25T11:01:43;11.50;99.90
54124;DHT22;55741;53.252;5.788;2023-04-25T11:04:33;11.70;99.90
54124;DHT22;55741;53.252;5.788;2023-04-25T11:09:49;11.90;99.90
54124;DHT22;55741;53.252;5.788;2023-04-25T11:12:15;11.60;99.90
54124;DHT22;55741;53.252;5.788;2023-04-25T11:14:42;11.20;99.90
54124;DHT22;55741;53.252;5.788;2023-04-25T11:17:08;10.60;99.90
54124;DHT22;55741;53.252;5.788;2023-04-25T11:19:36;10.30;99.90
54124;DHT22;55741;53.252;5.788;2023-04-25T11:22:02;10.10;99.90
54124;DHT22;55741;53.252;5.788;2023-04-25T11:24:29;10.20;99.90
54124;DHT22;55741;53.252;5.788;2023-04-25T11:26:56;10.50;99.90
54124;DHT22;55741;53.252;5.788;2023-04-25T11:29:29;10.70;99.90
54124;DHT22;55741;53.252;5.788;2023-04-25T11:31:55;10.70;99.90
54124;DHT22;55741;53.252;5.788;2023-04-25T11:34:24;10.40;99.90
54124;DHT22;55741;53.252;5.788;2023-04-25T11:36:51;10.10;99.90
54124;DHT22;55741;53.252;5.788;2023-04-25T11:39:20;9.90;99.90
54124;DHT22;55741;53.252;5.788;2023-04-25T11:41:46;10.00;99.90
54124;DHT22;55741;53.252;5.788;2023-04-25T11:44:15;10.30;99.90
54124;DHT22;55741;53.252;5.788;2023-04-25T11:46:46;10.50;99.90
54124;DHT22;55741;53.252;5.788;2023-04-25T11:49:12;10.60;99.90
54124;DHT22;55741;53.252;5.788;2023-04-25T11:51:42;10.70;99.90
54124;DHT22;55741;53.252;5.788;2023-04-25T11:54:09;10.80;99.90
54124;DHT22;55741;53.252;5.788;2023-04-25T11:56:35;11.00;99.90
54124;DHT22;55741;53.252;5.788;2023-04-25T11:59:05;10.90;99.90
54124;DHT22;55741;53.252;5.788;2023-04-25T12:01:32;10.90;99.90
54124;DHT22;55741;53.252;5.788;2023-04-25T12:04:11;11.00;99.90
54124;DHT22;55741;53.252;5.788;2023-04-25T12:06:37;11.20;99.90
54124;DHT22;55741;53.252;5.788;2023-04-25T12:09:09;11.40;99.90
54124;DHT22;55741;53.252;5.788;2023-04-25T12:11:46;11.50;99.90
54124;DHT22;55741;53.252;5.788;2023-04-25T12:16:50;11.50;99.90
54124;DHT22;55741;53.252;5.788;2023-04-25T12:19:19;11.50;99.90
54124;DHT22;55741;53.252;5.788;2023-04-25T12:21:46;11.50;99.90
54124;DHT22;55741;53.252;5.788;2023-04-25T12:24:12;11.60;99.90
54124;DHT22;55741;53.252;5.788;2023-04-25T12:27:07;11.70;99.90
54124;DHT22;55741;53.252;5.788;2023-04-25T12:29:34;11.70;99.90
54124;DHT22;55741;53.252;5.788;2023-04-25T12:32:00;11.50;99.90
54124;DHT22;55741;53.252;5.788;2023-04-25T12:34:29;11.40;99.90
54124;DHT22;55741;53.252;5.788;2023-04-25T12:36:57;11.50;99.90
54124;DHT22;55741;53.252;5.788;2023-04-25T12:39:24;11.70;99.90
54124;DHT22;55741;53.252;5.788;2023-04-25T12:41:53;11.90;99.90
54124;DHT22;55741;53.252;5.788;2023-04-25T12:44:20;12.00;99.90
54124;DHT22;55741;53.252;5.788;2023-04-25T12:46:47;12.10;99.90
54124;DHT22;55741;53.252;5.788;2023-04-25T12:49:13;12.10;99.90
54124;DHT22;55741;53.252;5.788;2023-04-25T12:51:39;12.20;99.90
54124;DHT22;55741;53.252;5.788;2023-04-25T12:54:05;12.30;99.90
54124;DHT22;55741;53.252;5.788;2023-04-25T12:56:32;12.30;99.90
54124;DHT22;55741;53.252;5.788;2023-04-25T12:58:59;12.10;99.90
54124;DHT22;55741;53.252;5.788;2023-04-25T13:01:25;11.90;99.90
54124;DHT22;55741;53.252;5.788;2023-04-25T13:03:52;11.80;99.90
54124;DHT22;55741;53.252;5.788;2023-04-25T13:06:19;11.80;99.90
54124;DHT22;55741;53.252;5.788;2023-04-25T13:08:45;12.00;99.90
54124;DHT22;55741;53.252;5.788;2023-04-25T13:11:12;12.00;99.90
54124;DHT22;55741;53.252;5.788;2023-04-25T13:13:40;12.10;99.90
54124;DHT22;55741;53.252;5.788;2023-04-25T13:16:07;12.10;99.90
54124;DHT22;55741;53.252;5.788;2023-04-25T13:18:33;11.90;99.90
54124;DHT22;55741;53.252;5.788;2023-04-25T13:20:59;11.90;99.90
54124;DHT22;55741;53.252;5.788;2023-04-25T13:23:26;11.80;99.90
54124;DHT22;55741;53.252;5.788;2023-04-25T13:25:52;11.80;99.90
54124;DHT22;55741;53.252;5.788;2023-04-25T13:28:19;11.80;99.90
54124;DHT22;55741;53.252;5.788;2023-04-25T13:30:45;11.80;99.90
54124;DHT22;55741;53.252;5.788;2023-04-25T13:33:12;11.60;99.90
54124;DHT22;55741;53.252;5.788;2023-04-25T13:35:39;11.30;99.90
54124;DHT22;55741;53.252;5.788;2023-04-25T13:38:04;11.10;99.90
54124;DHT22;55741;53.252;5.788;2023-04-25T13:40:31;11.10;99.90
54124;DHT22;55741;53.252;5.788;2023-04-25T13:42:57;11.10;99.90
54124;DHT22;55741;53.252;5.788;2023-04-25T13:45:24;11.10;99.90
54124;DHT22;55741;53.252;5.788;2023-04-25T13:47:50;11.10;99.90
54124;DHT22;55741;53.252;5.788;2023-04-25T13:50:16;11.00;99.90
54124;DHT22;55741;53.252;5.788;2023-04-25T13:52:42;10.80;99.90
54124;DHT22;55741;53.252;5.788;2023-04-25T13:55:09;10.60;99.90
54124;DHT22;55741;53.252;5.788;2023-04-25T13:57:35;10.40;99.90
54124;DHT22;55741;53.252;5.788;2023-04-25T14:00:03;10.50;99.90
54124;DHT22;55741;53.252;5.788;2023-04-25T14:02:34;10.80;99.90
54124;DHT22;55741;53.252;5.788;2023-04-25T14:05:01;11.00;99.90
54124;DHT22;55741;53.252;5.788;2023-04-25T14:07:27;11.10;99.90
54124;DHT22;55741;53.252;5.788;2023-04-25T14:09:53;11.30;99.90
54124;DHT22;55741;53.252;5.788;2023-04-25T14:12:20;11.30;99.90
54124;DHT22;55741;53.252;5.788;2023-04-25T14:14:46;11.20;99.90
54124;DHT22;55741;53.252;5.788;2023-04-25T14:17:12;11.10;99.90
54124;DHT22;55741;53.252;5.788;2023-04-25T14:19:38;11.20;99.90
54124;DHT22;55741;53.252;5.788;2023-04-25T14:22:09;11.30;99.90
54124;DHT22;55741;53.252;5.788;2023-04-25T14:24:34;11.30;99.90
54124;DHT22;55741;53.252;5.788;2023-04-25T14:27:00;11.30;99.90
54124;DHT22;55741;53.252;5.788;2023-04-25T14:29:26;11.30;99.90
54124;DHT22;55741;53.252;5.788;2023-04-25T14:31:52;11.40;99.90
54124;DHT22;55741;53.252;5.788;2023-04-25T14:34:19;11.20;99.90
54124;DHT22;55741;53.252;5.788;2023-04-25T14:36:45;11.10;99.90
54124;DHT22;55741;53.252;5.788;2023-04-25T14:39:12;10.90;99.90
54124;DHT22;55741;53.252;5.788;2023-04-25T14:41:38;10.80;99.90
54124;DHT22;55741;53.252;5.788;2023-04-25T14:44:04;10.60;99.90
54124;DHT22;55741;53.252;5.788;2023-04-25T14:46:29;10.50;99.90
54124;DHT22;55741;53.252;5.788;2023-04-25T14:48:56;10.40;99.90
54124;DHT22;55741;53.252;5.788;2023-04-25T14:51:22;10.30;99.90
54124;DHT22;55741;53.252;5.788;2023-04-25T14:53:48;10.10;99.90
54124;DHT22;55741;53.252;5.788;2023-04-25T14:56:14;9.90;99.90
54124;DHT22;55741;53.252;5.788;2023-04-25T14:58:40;10.00;99.90
54124;DHT22;55741;53.252;5.788;2023-04-25T15:01:06;10.10;99.90
54124;DHT22;55741;53.252;5.788;2023-04-25T15:03:34;10.20;99.90
54124;DHT22;55741;53.252;5.788;2023-04-25T15:06:00;10.40;99.90
54124;DHT22;55741;53.252;5.788;2023-04-25T15:08:26;10.50;99.90
54124;DHT22;55741;53.252;5.788;2023-04-25T15:10:52;10.60;99.90
54124;DHT22;55741;53.252;5.788;2023-04-25T15:13:19;10.70;99.90
54124;DHT22;55741;53.252;5.788;2023-04-25T15:15:45;10.60;99.90
54124;DHT22;55741;53.252;5.788;2023-04-25T15:18:20;10.40;99.90
54124;DHT22;55741;53.252;5.788;2023-04-25T15:20:53;10.20;99.90
54124;DHT22;55741;53.252;5.788;2023-04-25T15:23:20;10.00;99.90
54124;DHT22;55741;53.252;5.788;2023-04-25T15:25:47;9.90;99.90
54124;DHT22;55741;53.252;5.788;2023-04-25T15:28:13;9.90;99.90
54124;DHT22;55741;53.252;5.788;2023-04-25T15:30:43;9.80;99.90
54124;DHT22;55741;53.252;5.788;2023-04-25T15:33:08;9.70;99.90
54124;DHT22;55741;53.252;5.788;2023-04-25T15:35:34;9.70;99.90
54124;DHT22;55741;53.252;5.788;2023-04-25T15:38:00;9.80;99.90
54124;DHT22;55741;53.252;5.788;2023-04-25T15:40:26;10.00;99.90
54124;DHT22;55741;53.252;5.788;2023-04-25T15:42:52;10.20;99.90
54124;DHT22;55741;53.252;5.788;2023-04-25T15:45:21;10.20;99.90
54124;DHT22;55741;53.252;5.788;2023-04-25T15:47:48;10.20;99.90